createdAt,value
2022-10-11T00:02:00.654Z,23.70
2022-10-11T00:07:04.626Z,23.70
2022-10-11T00:12:07.462Z,23.70
2022-10-11T00:17:10.062Z,23.60
2022-10-11T00:22:14.118Z,23.70
2022-10-11T00:27:16.793Z,23.80
2022-10-11T00:32:19.449Z,23.70
2022-10-11T00:37:23.374Z,23.70
2022-10-11T00:42:26.198Z,23.60
2022-10-11T00:47:28.819Z,23.60
2022-10-11T00:52:35.274Z,23.60
2022-10-11T00:57:39.896Z,23.60
2022-10-11T01:02:42.980Z,23.60
2022-10-11T01:07:47.756Z,23.50
2022-10-11T01:12:55.292Z,23.60
2022-10-11T01:18:02.535Z,23.60
2022-10-11T01:23:20.026Z,23.50
2022-10-11T01:28:30.475Z,23.60
2022-10-11T01:33:36.694Z,23.50
2022-10-11T01:38:42.948Z,23.60
2022-10-11T01:43:46.494Z,23.50
2022-10-11T01:48:51.485Z,23.50
2022-10-11T01:54:00.317Z,23.50
2022-10-11T01:59:09.941Z,23.50
2022-10-11T02:04:16.962Z,23.40
2022-10-11T02:09:23.270Z,23.50
2022-10-11T02:14:27.870Z,23.50
2022-10-11T02:19:35.297Z,23.50
2022-10-11T02:24:40.197Z,23.40
2022-10-11T02:29:44.826Z,23.50
2022-10-11T02:34:51.901Z,23.50
2022-10-11T02:39:56.370Z,23.40
2022-10-11T02:45:01.997Z,23.50
2022-10-11T02:50:06.617Z,23.40
2022-10-11T02:55:09.834Z,23.50
2022-10-11T03:00:13.162Z,23.40
2022-10-11T03:05:17.138Z,23.40
2022-10-11T03:10:19.753Z,23.40
2022-10-11T03:15:22.377Z,23.40
2022-10-11T03:20:26.680Z,23.40
2022-10-11T03:25:29.334Z,23.40
2022-10-11T03:30:32.253Z,23.40
2022-10-11T03:35:36.215Z,23.40
2022-10-11T03:40:38.811Z,23.40
2022-10-11T03:45:42.558Z,23.40
2022-10-11T03:50:46.479Z,23.30
2022-10-11T03:55:52.684Z,23.30
2022-10-11T04:00:55.449Z,23.40
2022-10-11T04:05:59.417Z,23.30
2022-10-11T04:11:02.003Z,23.30
2022-10-11T04:16:05.063Z,23.30
2022-10-11T04:21:09.274Z,23.30
2022-10-11T04:26:11.889Z,23.40
2022-10-11T04:31:14.483Z,23.30
2022-10-11T04:36:18.420Z,23.40
2022-10-11T04:41:21.017Z,23.40
2022-10-11T04:46:23.660Z,23.30
2022-10-11T04:51:28.730Z,23.30
2022-10-11T04:56:31.369Z,23.30
2022-10-11T05:01:34.411Z,23.20
2022-10-11T05:06:38.386Z,23.30
2022-10-11T05:11:40.961Z,23.20
2022-10-11T05:16:43.614Z,23.20
2022-10-11T05:21:47.567Z,23.20
2022-10-11T05:26:50.174Z,23.20
2022-10-11T05:31:52.770Z,23.20
2022-10-11T05:36:57.681Z,23.20
2022-10-11T05:42:00.263Z,23.10
2022-10-11T05:47:03.117Z,23.20
2022-10-11T05:52:09.050Z,23.20
2022-10-11T05:57:11.658Z,23.20
2022-10-11T06:02:14.524Z,23.20
2022-10-11T06:07:18.457Z,23.10
2022-10-11T06:12:21.794Z,23.10
2022-10-11T06:17:24.569Z,23.10
2022-10-11T06:22:28.572Z,23.10
2022-10-11T06:27:31.222Z,23.10
2022-10-11T06:32:33.803Z,23.20
2022-10-11T06:37:37.738Z,23.00
2022-10-11T06:42:40.438Z,22.90
2022-10-11T06:47:43.077Z,23.00
2022-10-11T06:52:47.282Z,23.20
2022-10-11T06:57:52.663Z,23.10
2022-10-11T07:02:55.287Z,23.10
2022-10-11T07:07:59.238Z,23.10
2022-10-11T07:13:02.675Z,23.20
2022-10-11T07:18:22.388Z,23.30
2022-10-11T07:23:26.478Z,23.30
2022-10-11T07:28:30.389Z,23.30
2022-10-11T07:33:33.151Z,23.20
2022-10-11T07:38:39.399Z,23.30
2022-10-11T07:43:43.714Z,23.20
2022-10-11T07:48:46.444Z,23.30
2022-10-11T07:53:51.044Z,23.30
2022-10-11T07:58:54.472Z,23.20
2022-10-11T08:03:59.821Z,23.10
2022-10-11T08:09:08.643Z,23.20
2022-10-11T08:14:11.335Z,23.40
2022-10-11T08:19:14.020Z,23.40
2022-10-11T08:24:20.723Z,23.30
2022-10-11T08:29:23.369Z,23.30
2022-10-11T08:34:26.049Z,23.30
2022-10-11T08:39:30.057Z,23.40
2022-10-11T08:44:58.429Z,23.40
2022-10-11T08:49:59.251Z,23.40
2022-10-11T08:55:05.287Z,23.20
2022-10-11T09:00:09.301Z,23.20
2022-10-11T09:05:14.181Z,23.20
2022-10-11T09:10:34.453Z,23.30
2022-10-11T09:15:42.458Z,23.20
2022-10-11T09:20:50.090Z,23.30
2022-10-11T09:25:55.709Z,23.30
2022-10-11T09:31:00.256Z,23.40
2022-10-11T09:36:03.693Z,23.40
2022-10-11T09:41:10.163Z,23.40
2022-10-11T09:46:19.073Z,23.50
2022-10-11T09:51:23.051Z,23.70
2022-10-11T09:56:26.929Z,23.90
2022-10-11T10:01:33.466Z,24.00
2022-10-11T10:06:36.143Z,24.00
2022-10-11T10:11:38.834Z,24.10
2022-10-11T10:16:43.095Z,24.00
2022-10-11T10:21:47.531Z,24.00
2022-10-11T10:27:17.954Z,24.10
2022-10-11T10:32:25.722Z,24.20
2022-10-11T10:37:33.029Z,24.20
2022-10-11T10:42:35.701Z,24.30
2022-10-11T10:47:54.307Z,24.30
2022-10-11T10:53:01.691Z,24.40
2022-10-11T10:58:09.640Z,24.40
2022-10-11T11:03:15.872Z,24.40
2022-10-11T11:08:28.415Z,24.40
2022-10-11T11:13:34.972Z,24.60
2022-10-11T11:18:41.662Z,24.50
2022-10-11T11:23:48.680Z,24.60
2022-10-11T11:28:58.735Z,24.60
2022-10-11T11:34:06.054Z,24.70
2022-10-11T11:39:14.816Z,24.50
2022-10-11T11:44:27.083Z,24.50
2022-10-11T11:49:34.725Z,24.40
2022-10-11T11:54:43.417Z,24.40
2022-10-11T11:59:47.331Z,24.20
2022-10-11T12:04:52.143Z,24.20
2022-10-11T12:09:55.668Z,24.30
2022-10-11T12:15:13.154Z,24.30
2022-10-11T12:20:21.982Z,24.50
2022-10-11T12:25:33.065Z,24.40
2022-10-11T12:30:54.701Z,24.40
2022-10-11T12:36:04.008Z,24.40
2022-10-11T12:41:28.836Z,24.40
2022-10-11T12:46:42.261Z,24.50
2022-10-11T12:51:51.257Z,24.60
2022-10-11T12:57:02.155Z,24.70
2022-10-11T13:02:05.268Z,24.80
2022-10-11T13:07:23.322Z,24.80
2022-10-11T13:12:27.389Z,24.60
2022-10-11T13:17:37.254Z,24.70
2022-10-11T13:22:42.412Z,24.70
2022-10-11T13:27:45.418Z,24.60
2022-10-11T13:32:48.467Z,24.60
2022-10-11T13:37:52.632Z,24.60
2022-10-11T13:42:55.853Z,24.70
2022-10-11T13:47:58.945Z,24.70
2022-10-11T13:53:04.321Z,24.90
2022-10-11T13:58:13.808Z,24.80
2022-10-11T14:03:20.924Z,24.90
2022-10-11T14:08:27.110Z,24.90
2022-10-11T14:13:32.043Z,24.90
2022-10-11T14:18:47.714Z,24.90
2022-10-11T14:23:52.977Z,25.00
2022-10-11T14:28:57.837Z,24.90
2022-10-11T14:34:00.694Z,24.90
2022-10-11T14:39:07.336Z,24.80
2022-10-11T14:44:10.517Z,24.90
2022-10-11T14:49:14.482Z,24.90
2022-10-11T14:54:20.282Z,25.00
2022-10-11T14:59:23.750Z,25.00
2022-10-11T15:04:27.132Z,25.00
2022-10-11T15:09:31.450Z,25.00
2022-10-11T15:14:34.086Z,25.00
2022-10-11T15:19:37.562Z,24.80
2022-10-11T15:24:41.527Z,25.10
2022-10-11T15:29:44.308Z,24.90
2022-10-11T15:34:46.899Z,25.00
2022-10-11T15:39:50.903Z,24.90
2022-10-11T15:44:53.554Z,24.90
2022-10-11T15:49:56.148Z,24.80
2022-10-11T15:55:00.085Z,24.50
2022-10-11T16:00:03.028Z,24.50
2022-10-11T16:05:06.059Z,24.50
2022-10-11T16:10:10.454Z,24.50
2022-10-11T16:15:13.040Z,24.40
2022-10-11T16:20:18.557Z,24.30
2022-10-11T16:25:23.430Z,24.40
2022-10-11T16:30:26.048Z,24.40
2022-10-11T16:35:32.409Z,24.60
2022-10-11T16:40:37.581Z,24.80
2022-10-11T16:45:40.161Z,24.90
2022-10-11T16:50:42.767Z,25.00
2022-10-11T16:55:46.702Z,25.00
2022-10-11T17:00:50.582Z,25.00
2022-10-11T17:05:53.330Z,24.90
2022-10-11T17:10:57.861Z,24.90
2022-10-11T17:16:00.710Z,24.90
2022-10-11T17:21:03.606Z,24.80
2022-10-11T17:26:11.193Z,24.80
2022-10-11T17:31:14.314Z,24.90
2022-10-11T17:36:19.729Z,24.80
2022-10-11T17:41:26.031Z,24.80
2022-10-11T17:46:32.805Z,24.70
2022-10-11T17:51:36.112Z,24.80
2022-10-11T17:56:40.995Z,24.70
2022-10-11T18:01:43.904Z,24.70
2022-10-11T18:06:47.236Z,24.70
2022-10-11T18:11:51.503Z,24.60
2022-10-11T18:16:54.132Z,24.60
2022-10-11T18:21:56.714Z,24.60
2022-10-11T18:27:00.644Z,24.60
2022-10-11T18:32:03.265Z,24.60
2022-10-11T18:37:05.856Z,24.50
2022-10-11T18:42:09.815Z,24.50
2022-10-11T18:47:12.793Z,24.50
2022-10-11T18:52:15.627Z,24.60
2022-10-11T18:57:19.740Z,24.50
2022-10-11T19:02:22.329Z,24.40
2022-10-11T19:07:24.930Z,24.40
2022-10-11T19:12:29.022Z,24.50
2022-10-11T19:17:31.615Z,24.40
2022-10-11T19:22:34.358Z,24.40
2022-10-11T19:27:38.282Z,24.40
2022-10-11T19:32:40.910Z,24.40
2022-10-11T19:37:43.498Z,24.40
2022-10-11T19:42:47.449Z,24.30
2022-10-11T19:47:50.036Z,24.40
2022-10-11T19:52:53.365Z,24.40
2022-10-11T19:57:57.323Z,24.30
2022-10-11T20:03:01.154Z,24.40
2022-10-11T20:08:03.970Z,24.40
2022-10-11T20:13:11.498Z,24.30
2022-10-11T20:18:14.096Z,24.40
2022-10-11T20:23:18.271Z,24.40
2022-10-11T20:28:23.726Z,24.40
2022-10-11T20:33:26.466Z,24.40
2022-10-11T20:38:29.654Z,24.40
2022-10-11T20:43:33.658Z,24.30
2022-10-11T20:48:36.957Z,24.40
2022-10-11T20:53:39.577Z,24.40
2022-10-11T20:58:43.909Z,24.50
2022-10-11T21:03:46.526Z,24.50
2022-10-11T21:08:49.112Z,24.40
2022-10-11T21:13:56.154Z,24.40
2022-10-11T21:18:59.310Z,24.30
2022-10-11T21:24:02.869Z,24.30
2022-10-11T21:29:07.476Z,24.30
2022-10-11T21:34:10.087Z,24.30
2022-10-11T21:39:12.701Z,24.30
2022-10-11T21:44:16.747Z,24.30
2022-10-11T21:49:20.255Z,24.30
2022-10-11T21:54:22.894Z,24.30
2022-10-11T21:59:26.847Z,24.20
2022-10-11T22:04:29.531Z,24.20
2022-10-11T22:09:34.950Z,24.30
2022-10-11T22:14:38.918Z,24.30
2022-10-11T22:19:41.593Z,24.20
2022-10-11T22:24:44.233Z,24.20
2022-10-11T22:29:48.171Z,24.20
2022-10-11T22:34:50.763Z,24.20
2022-10-11T22:39:53.468Z,24.20
2022-10-11T22:44:57.812Z,24.30
2022-10-11T22:50:00.415Z,24.20
2022-10-11T22:55:03.015Z,24.20
2022-10-11T23:00:12.143Z,24.20
2022-10-11T23:05:15.095Z,24.20
2022-10-11T23:10:18.833Z,24.20
2022-10-11T23:15:22.790Z,24.10
2022-10-11T23:20:25.382Z,24.10
2022-10-11T23:25:27.987Z,24.10
2022-10-11T23:30:31.981Z,24.20
2022-10-11T23:35:34.989Z,24.20
2022-10-11T23:40:37.587Z,24.20
2022-10-11T23:45:42.449Z,24.20
2022-10-11T23:50:45.032Z,24.20
2022-10-11T23:55:47.675Z,24.10
